createdAt,value
2023-02-08T00:01:44.186Z,72.33
2023-02-08T00:04:13.524Z,71.80
2023-02-08T00:06:42.770Z,71.71
2023-02-08T00:09:12.243Z,71.85
2023-02-08T00:11:41.352Z,72.27
2023-02-08T00:14:11.985Z,72.27
2023-02-08T00:16:41.200Z,72.52
2023-02-08T00:19:10.467Z,72.21
2023-02-08T00:21:39.474Z,72.78
2023-02-08T00:24:09.297Z,72.71
2023-02-08T00:26:38.314Z,72.70
2023-02-08T00:29:07.613Z,72.81
2023-02-08T00:31:38.115Z,72.31
2023-02-08T00:34:07.486Z,72.44
2023-02-08T00:36:36.483Z,72.30
2023-02-08T00:39:05.918Z,71.86
2023-02-08T00:41:35.043Z,71.94
2023-02-08T00:44:04.364Z,72.54
2023-02-08T00:46:33.552Z,72.21
2023-02-08T00:49:04.220Z,72.22
2023-02-08T00:51:33.333Z,72.25
2023-02-08T00:54:02.648Z,72.43
2023-02-08T00:56:31.700Z,72.34
2023-02-08T00:59:01.990Z,72.47
2023-02-08T01:01:31.048Z,72.58
2023-02-08T01:04:00.338Z,72.59
2023-02-08T01:06:30.681Z,72.54
2023-02-08T01:09:00.073Z,72.38
2023-02-08T01:11:29.239Z,72.07
2023-02-08T01:13:59.446Z,72.31
2023-02-08T01:16:33.077Z,72.30
2023-02-08T01:19:05.286Z,72.08
2023-02-08T01:21:41.934Z,72.08
2023-02-08T01:24:12.072Z,72.63
2023-02-08T01:26:41.019Z,71.88
2023-02-08T01:29:11.029Z,72.53
2023-02-08T01:31:43.553Z,71.96
2023-02-08T01:34:14.262Z,72.11
2023-02-08T01:36:46.873Z,72.02
2023-02-08T01:39:16.161Z,71.73
2023-02-08T01:41:47.680Z,72.05
2023-02-08T01:45:26.842Z,72.15
2023-02-08T01:48:05.400Z,72.57
2023-02-08T01:50:46.354Z,72.05
2023-02-08T01:53:16.961Z,72.05
2023-02-08T01:55:53.862Z,71.64
2023-02-08T01:58:26.277Z,71.98
2023-02-08T02:00:56.214Z,72.12
2023-02-08T02:03:26.387Z,72.71
2023-02-08T02:06:11.146Z,72.20
2023-02-08T02:08:50.704Z,72.49
2023-02-08T02:11:21.489Z,72.34
2023-02-08T02:13:52.224Z,72.26
2023-02-08T02:16:21.902Z,72.15
2023-02-08T02:18:51.115Z,72.30
2023-02-08T02:21:47.149Z,72.00
2023-02-08T02:24:56.893Z,71.91
2023-02-08T02:27:47.473Z,72.73
2023-02-08T02:31:18.789Z,72.47
2023-02-08T02:34:08.073Z,72.92
2023-02-08T02:36:51.759Z,72.89
2023-02-08T02:39:33.841Z,72.46
2023-02-08T02:42:32.414Z,72.45
2023-02-08T02:45:16.076Z,71.90
2023-02-08T02:47:57.065Z,72.24
2023-02-08T02:50:38.167Z,72.35
2023-02-08T02:53:18.814Z,72.60
2023-02-08T02:55:56.086Z,72.35
2023-02-08T02:58:30.123Z,73.04
2023-02-08T03:01:00.749Z,72.88
2023-02-08T03:03:34.794Z,72.37
2023-02-08T03:06:11.721Z,72.80
2023-02-08T03:09:26.929Z,72.50
2023-02-08T03:12:11.448Z,72.91
2023-02-08T03:14:56.978Z,73.70
2023-02-08T03:17:56.940Z,73.62
2023-02-08T03:20:33.440Z,73.62
2023-02-08T03:23:15.730Z,73.24
2023-02-08T03:25:55.115Z,72.94
2023-02-08T03:28:32.017Z,72.95
2023-02-08T03:31:13.743Z,73.29
2023-02-08T03:33:52.740Z,73.22
2023-02-08T03:36:28.676Z,73.74
2023-02-08T03:39:02.688Z,73.55
2023-02-08T03:41:39.001Z,73.18
2023-02-08T03:44:16.220Z,73.17
2023-02-08T03:46:53.939Z,73.28
2023-02-08T03:49:29.829Z,73.60
2023-02-08T03:52:03.110Z,73.20
2023-02-08T03:54:39.781Z,72.82
2023-02-08T03:57:17.769Z,73.46
2023-02-08T03:59:54.884Z,73.59
2023-02-08T04:02:29.375Z,73.25
2023-02-08T04:05:01.824Z,73.31
2023-02-08T04:07:30.849Z,73.74
2023-02-08T04:10:01.542Z,73.29
2023-02-08T04:12:30.690Z,74.07
2023-02-08T04:14:59.917Z,73.44
2023-02-08T04:17:28.925Z,73.85
2023-02-08T04:19:58.245Z,73.63
2023-02-08T04:22:27.206Z,73.81
2023-02-08T04:24:56.664Z,73.89
2023-02-08T04:27:27.137Z,73.99
2023-02-08T04:29:56.439Z,73.93
2023-02-08T04:32:25.392Z,74.50
2023-02-08T04:34:54.637Z,73.56
2023-02-08T04:37:23.820Z,73.93
2023-02-08T04:39:53.078Z,73.65
2023-02-08T04:42:22.139Z,74.37
2023-02-08T04:44:52.763Z,73.65
2023-02-08T04:47:22.051Z,73.74
2023-02-08T04:49:51.334Z,73.96
2023-02-08T04:52:20.312Z,73.90
2023-02-08T04:54:49.588Z,74.07
2023-02-08T04:57:18.539Z,73.92
2023-02-08T04:59:47.813Z,73.99
2023-02-08T05:02:18.154Z,73.63
2023-02-08T05:04:47.623Z,73.98
2023-02-08T05:07:16.667Z,73.80
2023-02-08T05:09:45.927Z,74.09
2023-02-08T05:12:14.899Z,74.12
2023-02-08T05:14:44.112Z,74.16
2023-02-08T05:17:13.133Z,73.98
2023-02-08T05:19:43.777Z,74.08
2023-02-08T05:22:12.697Z,74.54
2023-02-08T05:24:42.039Z,74.35
2023-02-08T05:27:11.088Z,74.24
2023-02-08T05:29:40.367Z,74.52
2023-02-08T05:32:09.336Z,74.10
2023-02-08T05:34:39.475Z,73.93
2023-02-08T05:37:09.868Z,74.04
2023-02-08T05:39:39.096Z,74.66
2023-02-08T05:42:08.381Z,74.58
2023-02-08T05:44:37.607Z,74.51
2023-02-08T05:47:06.789Z,74.45
2023-02-08T05:49:36.107Z,75.35
2023-02-08T05:52:05.603Z,75.32
2023-02-08T05:54:36.283Z,74.81
2023-02-08T05:57:05.471Z,75.51
2023-02-08T05:59:34.769Z,75.44
2023-02-08T06:02:03.764Z,75.64
2023-02-08T06:04:33.011Z,75.96
2023-02-08T06:07:01.952Z,75.83
2023-02-08T06:09:31.275Z,75.81
2023-02-08T06:12:01.742Z,75.33
2023-02-08T06:14:31.063Z,75.39
2023-02-08T06:17:00.468Z,75.35
2023-02-08T06:19:29.732Z,75.28
2023-02-08T06:21:58.793Z,75.46
2023-02-08T06:24:28.079Z,75.01
2023-02-08T06:26:57.929Z,75.53
2023-02-08T06:29:28.447Z,75.38
2023-02-08T06:31:57.384Z,75.92
2023-02-08T06:34:26.567Z,75.67
2023-02-08T06:36:55.410Z,75.17
2023-02-08T06:39:24.898Z,75.35
2023-02-08T06:41:53.699Z,75.49
2023-02-08T06:44:22.772Z,74.78
2023-02-08T06:46:53.419Z,74.79
2023-02-08T06:49:22.541Z,75.03
2023-02-08T06:51:51.439Z,74.89
2023-02-08T06:54:20.843Z,75.04
2023-02-08T06:56:49.722Z,75.12
2023-02-08T06:59:18.833Z,75.05
2023-02-08T07:01:47.733Z,75.20
2023-02-08T07:04:18.393Z,74.72
2023-02-08T07:06:49.891Z,74.68
2023-02-08T07:09:19.217Z,75.46
2023-02-08T07:11:48.806Z,75.25
2023-02-08T07:14:18.032Z,75.04
2023-02-08T07:16:47.385Z,75.69
2023-02-08T07:19:17.858Z,75.29
2023-02-08T07:21:46.645Z,75.71
2023-02-08T07:24:15.784Z,75.84
2023-02-08T07:26:44.644Z,76.22
2023-02-08T07:29:13.718Z,75.77
2023-02-08T07:31:42.595Z,75.57
2023-02-08T07:34:11.703Z,76.04
2023-02-08T07:36:41.883Z,75.90
2023-02-08T07:39:10.995Z,75.84
2023-02-08T07:41:39.831Z,75.53
2023-02-08T07:44:09.003Z,76.08
2023-02-08T07:46:37.918Z,76.12
2023-02-08T07:49:07.438Z,76.18
2023-02-08T07:51:36.337Z,76.62
2023-02-08T07:54:06.867Z,76.43
2023-02-08T07:56:35.827Z,76.36
2023-02-08T07:59:05.176Z,75.97
2023-02-08T08:01:34.197Z,76.39
2023-02-08T08:04:03.447Z,76.43
2023-02-08T08:06:32.286Z,76.41
2023-02-08T08:09:01.498Z,76.48
2023-02-08T08:11:31.724Z,76.61
2023-02-08T08:14:00.856Z,77.11
2023-02-08T08:16:29.718Z,76.92
2023-02-08T08:18:58.851Z,76.78
2023-02-08T08:21:27.748Z,77.20
2023-02-08T08:23:56.859Z,76.92
2023-02-08T08:26:25.668Z,76.87
2023-02-08T08:28:56.101Z,77.27
2023-02-08T08:31:25.089Z,77.19
2023-02-08T08:33:54.295Z,76.92
2023-02-08T08:36:23.125Z,76.95
2023-02-08T08:38:53.475Z,76.75
2023-02-08T08:41:23.224Z,76.61
2023-02-08T08:43:52.678Z,76.98
2023-02-08T08:46:22.940Z,77.40
2023-02-08T08:48:52.774Z,76.37
2023-02-08T08:51:21.950Z,77.04
2023-02-08T08:53:51.110Z,77.02
2023-02-08T08:56:20.494Z,76.94
2023-02-08T08:58:49.881Z,76.65
2023-02-08T09:01:18.896Z,76.92
2023-02-08T09:03:49.388Z,77.45
2023-02-08T09:06:19.076Z,76.98
2023-02-08T09:08:50.264Z,77.07
2023-02-08T09:11:20.581Z,76.66
2023-02-08T09:13:52.895Z,76.42
2023-02-08T09:16:21.948Z,76.03
2023-02-08T09:18:52.594Z,75.88
2023-02-08T09:21:26.126Z,76.00
2023-02-08T09:23:55.284Z,75.92
2023-02-08T09:26:25.221Z,75.48
2023-02-08T09:28:54.594Z,75.39
2023-02-08T09:31:26.786Z,75.13
2023-02-08T09:34:01.410Z,74.88
2023-02-08T09:36:33.628Z,74.74
2023-02-08T09:39:08.206Z,75.28
2023-02-08T09:42:16.605Z,74.76
2023-02-08T09:45:17.162Z,74.43
2023-02-08T09:47:51.963Z,73.95
2023-02-08T09:50:32.812Z,74.07
2023-02-08T09:53:12.531Z,73.82
2023-02-08T09:55:47.370Z,73.01
2023-02-08T09:58:28.208Z,72.65
2023-02-08T10:00:58.519Z,73.28
2023-02-08T10:03:37.246Z,73.52
2023-02-08T10:06:12.619Z,72.36
2023-02-08T10:08:44.492Z,72.31
2023-02-08T10:11:43.418Z,72.90
2023-02-08T10:14:38.345Z,72.97
2023-02-08T10:17:31.769Z,72.82
2023-02-08T10:20:18.536Z,72.83
2023-02-08T10:23:06.578Z,71.47
2023-02-08T10:26:10.353Z,71.62
2023-02-08T10:29:30.423Z,70.49
2023-02-08T10:32:26.258Z,70.66
2023-02-08T10:35:01.564Z,70.20
2023-02-08T10:37:34.980Z,70.27
2023-02-08T10:40:32.571Z,70.47
2023-02-08T10:43:16.196Z,70.60
2023-02-08T10:45:55.339Z,69.44
2023-02-08T10:48:39.580Z,69.19
2023-02-08T10:51:13.140Z,69.33
2023-02-08T10:53:41.983Z,69.31
2023-02-08T10:56:36.267Z,69.20
2023-02-08T10:59:16.595Z,69.13
2023-02-08T11:01:49.189Z,69.46
2023-02-08T11:04:19.756Z,68.35
2023-02-08T11:06:51.802Z,66.82
2023-02-08T11:09:29.128Z,65.44
2023-02-08T11:12:03.429Z,65.63
2023-02-08T11:14:47.187Z,66.08
2023-02-08T11:17:29.824Z,66.81
2023-02-08T11:20:01.073Z,62.56
2023-02-08T11:22:32.384Z,62.15
2023-02-08T11:25:05.502Z,62.28
2023-02-08T11:27:40.525Z,59.70
2023-02-08T11:30:24.634Z,55.28
2023-02-08T11:33:22.792Z,55.88
2023-02-08T11:36:14.058Z,55.39
2023-02-08T11:38:44.617Z,56.90
2023-02-08T11:41:20.045Z,57.08
2023-02-08T11:44:03.857Z,58.22
2023-02-08T11:46:37.375Z,56.58
2023-02-08T11:49:06.607Z,56.30
2023-02-08T11:51:38.701Z,55.63
2023-02-08T11:54:08.039Z,55.20
2023-02-08T11:56:36.998Z,55.55
2023-02-08T11:59:23.658Z,54.86
2023-02-08T12:01:52.662Z,55.51
2023-02-08T12:04:22.343Z,54.60
2023-02-08T12:07:21.369Z,54.30
2023-02-08T12:10:41.117Z,52.46
2023-02-08T12:13:45.518Z,51.37
2023-02-08T12:16:42.902Z,52.49
2023-02-08T12:19:58.815Z,51.89
2023-02-08T12:22:29.834Z,50.84
2023-02-08T12:25:23.342Z,51.39
2023-02-08T12:28:03.546Z,50.39
2023-02-08T12:30:36.621Z,52.66
2023-02-08T12:33:36.914Z,52.78
2023-02-08T12:36:46.376Z,50.60
2023-02-08T12:39:53.508Z,50.80
2023-02-08T12:42:49.507Z,51.19
2023-02-08T12:45:53.479Z,51.15
2023-02-08T12:49:03.777Z,50.78
2023-02-08T12:51:44.953Z,51.51
2023-02-08T12:54:23.050Z,52.14
2023-02-08T12:57:01.920Z,51.50
2023-02-08T12:59:40.699Z,50.63
2023-02-08T13:02:21.902Z,50.11
2023-02-08T13:04:59.645Z,50.30
2023-02-08T13:07:36.676Z,49.92
2023-02-08T13:10:14.603Z,50.60
2023-02-08T13:12:53.281Z,50.40
2023-02-08T13:15:31.208Z,50.79
2023-02-08T13:18:11.982Z,49.28
2023-02-08T13:20:47.143Z,51.80
2023-02-08T13:23:25.745Z,49.43
2023-02-08T13:25:59.243Z,49.97
2023-02-08T13:28:29.758Z,51.42
2023-02-08T13:31:05.352Z,52.13
2023-02-08T13:34:00.433Z,50.26
2023-02-08T13:36:36.216Z,51.53
2023-02-08T13:39:08.984Z,52.48
2023-02-08T13:41:38.665Z,51.79
2023-02-08T13:44:19.435Z,50.81
2023-02-08T13:46:51.549Z,51.27
2023-02-08T13:49:45.250Z,50.62
2023-02-08T13:52:51.592Z,51.63
2023-02-08T13:55:57.996Z,52.12
2023-02-08T13:59:01.143Z,52.53
2023-02-08T14:01:33.001Z,51.83
2023-02-08T14:04:42.147Z,50.89
2023-02-08T14:07:24.992Z,51.12
2023-02-08T14:10:10.709Z,51.24
2023-02-08T14:12:51.495Z,50.81
2023-02-08T14:15:39.346Z,51.73
2023-02-08T14:18:27.679Z,52.45
2023-02-08T14:21:06.840Z,51.00
2023-02-08T14:23:40.799Z,51.56
2023-02-08T14:26:24.226Z,52.46
2023-02-08T14:28:59.171Z,53.41
2023-02-08T14:31:41.879Z,52.04
2023-02-08T14:34:34.619Z,51.51
2023-02-08T14:37:27.219Z,51.66
2023-02-08T14:40:48.765Z,54.61
2023-02-08T14:43:37.291Z,53.93
2023-02-08T14:46:45.720Z,53.42
2023-02-08T14:49:17.046Z,54.54
2023-02-08T14:51:53.072Z,54.78
2023-02-08T14:54:33.782Z,54.83
2023-02-08T14:57:08.639Z,55.57
2023-02-08T14:59:39.999Z,55.37
2023-02-08T15:02:21.705Z,55.03
2023-02-08T15:04:50.923Z,56.03
2023-02-08T15:07:33.378Z,56.22
2023-02-08T15:10:05.449Z,56.42
2023-02-08T15:12:39.908Z,57.59
2023-02-08T15:15:27.196Z,57.76
2023-02-08T15:17:57.868Z,57.50
2023-02-08T15:20:30.037Z,56.94
2023-02-08T15:23:02.699Z,57.56
2023-02-08T15:25:34.389Z,58.15
2023-02-08T15:28:18.857Z,58.33
2023-02-08T15:30:57.932Z,58.80
2023-02-08T15:33:27.624Z,59.06
2023-02-08T15:36:06.250Z,59.28
2023-02-08T15:38:39.631Z,58.93
2023-02-08T15:41:13.148Z,58.30
2023-02-08T15:43:44.193Z,59.27
2023-02-08T15:46:24.844Z,59.25
2023-02-08T15:48:56.930Z,59.58
2023-02-08T15:51:27.492Z,60.29
2023-02-08T15:53:58.066Z,60.15
2023-02-08T15:56:38.051Z,60.54
2023-02-08T15:59:23.499Z,60.14
2023-02-08T16:01:55.260Z,60.70
2023-02-08T16:04:26.339Z,60.95
2023-02-08T16:06:59.377Z,61.54
2023-02-08T16:09:30.339Z,61.92
2023-02-08T16:12:02.416Z,62.04
2023-02-08T16:14:47.210Z,61.77
2023-02-08T16:17:38.991Z,63.97
2023-02-08T16:20:30.094Z,63.27
2023-02-08T16:23:03.671Z,64.02
2023-02-08T16:25:44.635Z,62.73
2023-02-08T16:28:28.867Z,62.66
2023-02-08T16:31:01.573Z,64.17
2023-02-08T16:33:34.931Z,64.64
2023-02-08T16:36:04.783Z,64.72
2023-02-08T16:38:36.088Z,65.43
2023-02-08T16:41:13.577Z,63.83
2023-02-08T16:43:44.717Z,64.47
2023-02-08T16:46:27.761Z,63.91
2023-02-08T16:48:59.115Z,63.78
2023-02-08T16:51:32.770Z,64.07
2023-02-08T16:54:07.469Z,64.57
2023-02-08T16:56:37.284Z,64.58
2023-02-08T16:59:06.639Z,64.02
2023-02-08T17:01:38.257Z,64.14
2023-02-08T17:04:08.555Z,63.60
2023-02-08T17:06:41.383Z,64.13
2023-02-08T17:09:14.811Z,64.11
2023-02-08T17:11:43.940Z,64.92
2023-02-08T17:14:12.873Z,64.02
2023-02-08T17:16:42.007Z,64.19
2023-02-08T17:19:18.718Z,65.79
2023-02-08T17:21:47.847Z,65.94
2023-02-08T17:24:17.404Z,66.68
2023-02-08T17:26:46.839Z,66.60
2023-02-08T17:29:15.667Z,65.92
2023-02-08T17:31:44.794Z,65.72
2023-02-08T17:34:17.620Z,65.76
2023-02-08T17:36:46.725Z,65.42
2023-02-08T17:39:16.800Z,65.90
2023-02-08T17:41:45.903Z,65.99
2023-02-08T17:44:15.243Z,65.36
2023-02-08T17:46:44.400Z,65.73
2023-02-08T17:49:16.292Z,65.55
2023-02-08T17:51:45.406Z,65.81
2023-02-08T17:54:14.982Z,66.39
2023-02-08T17:56:44.138Z,66.76
2023-02-08T17:59:13.739Z,65.85
2023-02-08T18:01:44.527Z,65.02
2023-02-08T18:04:14.831Z,65.69
2023-02-08T18:06:44.103Z,65.28
2023-02-08T18:09:12.964Z,65.98
2023-02-08T18:11:42.547Z,66.90
2023-02-08T18:14:11.456Z,67.18
2023-02-08T18:16:40.592Z,67.10
2023-02-08T18:19:09.787Z,67.19
2023-02-08T18:21:40.336Z,67.31
2023-02-08T18:24:09.278Z,67.74
2023-02-08T18:26:38.413Z,67.45
2023-02-08T18:29:07.536Z,67.60
2023-02-08T18:31:37.668Z,67.98
2023-02-08T18:34:06.588Z,67.87
2023-02-08T18:36:35.669Z,67.40
2023-02-08T18:39:05.981Z,66.79
2023-02-08T18:41:35.480Z,66.92
2023-02-08T18:44:04.329Z,68.01
2023-02-08T18:46:33.617Z,68.02
2023-02-08T18:49:02.488Z,68.29
2023-02-08T18:51:31.894Z,68.33
2023-02-08T18:54:00.891Z,68.20
2023-02-08T18:56:32.464Z,68.43
2023-02-08T18:59:01.737Z,68.83
2023-02-08T19:01:30.982Z,68.43
2023-02-08T19:04:00.700Z,68.19
2023-02-08T19:06:31.719Z,68.42
2023-02-08T19:09:05.110Z,69.16
2023-02-08T19:11:38.910Z,69.50
2023-02-08T19:14:12.284Z,69.47
2023-02-08T19:16:43.983Z,69.79
2023-02-08T19:19:13.417Z,69.28
2023-02-08T19:21:42.325Z,69.68
2023-02-08T19:24:15.385Z,69.72
2023-02-08T19:26:45.804Z,69.36
2023-02-08T19:29:17.809Z,69.25
2023-02-08T19:31:48.230Z,70.25
2023-02-08T19:34:20.308Z,70.10
2023-02-08T19:36:53.397Z,69.17
2023-02-08T19:39:25.602Z,69.37
2023-02-08T19:41:58.653Z,69.21
2023-02-08T19:44:30.474Z,69.75
2023-02-08T19:47:00.366Z,69.74
2023-02-08T19:49:29.674Z,69.54
2023-02-08T19:51:58.924Z,69.61
2023-02-08T19:54:28.058Z,69.95
2023-02-08T19:56:58.272Z,69.49
2023-02-08T19:59:34.222Z,69.92
2023-02-08T20:02:06.275Z,70.59
2023-02-08T20:04:35.509Z,69.46
2023-02-08T20:07:05.355Z,70.16
2023-02-08T20:09:35.260Z,69.88
2023-02-08T20:12:06.357Z,69.78
2023-02-08T20:14:35.499Z,69.82
2023-02-08T20:17:05.167Z,69.97
2023-02-08T20:19:38.031Z,69.98
2023-02-08T20:22:07.346Z,70.16
2023-02-08T20:24:36.410Z,70.74
2023-02-08T20:27:06.676Z,70.47
2023-02-08T20:29:36.052Z,69.93
2023-02-08T20:32:05.296Z,69.94
2023-02-08T20:34:34.662Z,70.52
2023-02-08T20:37:07.815Z,70.77
2023-02-08T20:39:38.488Z,70.47
2023-02-08T20:42:09.940Z,71.15
2023-02-08T20:44:39.100Z,71.28
2023-02-08T20:47:09.007Z,71.12
2023-02-08T20:49:40.090Z,71.20
2023-02-08T20:52:08.989Z,71.20
2023-02-08T20:54:39.158Z,71.61
2023-02-08T20:57:13.690Z,71.93
2023-02-08T20:59:43.509Z,72.31
2023-02-08T21:02:19.305Z,72.21
2023-02-08T21:04:48.814Z,72.04
2023-02-08T21:07:18.582Z,71.72
2023-02-08T21:09:48.051Z,71.39
2023-02-08T21:12:18.675Z,71.68
2023-02-08T21:14:47.855Z,71.14
2023-02-08T21:17:16.851Z,71.80
2023-02-08T21:19:47.658Z,71.76
2023-02-08T21:22:17.160Z,71.73
2023-02-08T21:24:46.292Z,72.07
2023-02-08T21:27:15.359Z,71.57
2023-02-08T21:29:46.392Z,71.67
2023-02-08T21:32:18.821Z,71.30
2023-02-08T21:34:50.047Z,70.91
2023-02-08T21:37:19.250Z,71.47
2023-02-08T21:39:48.422Z,71.48
2023-02-08T21:42:17.290Z,71.38
2023-02-08T21:44:47.801Z,71.15
2023-02-08T21:47:16.614Z,71.00
2023-02-08T21:50:05.359Z,71.31
2023-02-08T21:52:51.630Z,70.88
2023-02-08T21:55:20.932Z,71.08
2023-02-08T21:57:49.752Z,70.97
2023-02-08T22:00:20.449Z,71.00
2023-02-08T22:02:49.344Z,70.88
2023-02-08T22:05:20.553Z,70.99
2023-02-08T22:07:54.315Z,70.86
2023-02-08T22:10:27.011Z,71.09
2023-02-08T22:12:57.272Z,71.59
2023-02-08T22:15:30.751Z,71.28
2023-02-08T22:18:05.539Z,71.22
2023-02-08T22:20:34.656Z,71.64
2023-02-08T22:23:03.559Z,71.92
2023-02-08T22:25:32.960Z,71.76
2023-02-08T22:28:01.780Z,71.93
2023-02-08T22:30:32.624Z,71.51
2023-02-08T22:33:01.479Z,71.75
2023-02-08T22:35:30.965Z,71.52
2023-02-08T22:37:59.763Z,71.91
2023-02-08T22:40:28.969Z,71.58
2023-02-08T22:42:57.892Z,71.75
2023-02-08T22:45:27.122Z,70.78
2023-02-08T22:47:57.289Z,71.18
2023-02-08T22:50:26.363Z,71.47
2023-02-08T22:52:55.140Z,72.00
2023-02-08T22:55:24.341Z,71.82
2023-02-08T22:57:53.157Z,72.06
2023-02-08T23:00:22.660Z,71.59
2023-02-08T23:02:51.579Z,71.11
2023-02-08T23:05:22.164Z,71.26
2023-02-08T23:07:51.041Z,71.25
2023-02-08T23:10:20.271Z,71.44
2023-02-08T23:12:49.040Z,71.46
2023-02-08T23:15:18.564Z,70.91
2023-02-08T23:17:47.324Z,71.75
2023-02-08T23:20:16.489Z,71.63
2023-02-08T23:22:46.682Z,71.75
2023-02-08T23:25:15.867Z,71.76
2023-02-08T23:27:44.736Z,71.38
2023-02-08T23:30:14.538Z,71.79
2023-02-08T23:32:43.705Z,71.71
2023-02-08T23:35:13.300Z,71.58
2023-02-08T23:37:42.108Z,71.61
2023-02-08T23:40:14.027Z,71.78
2023-02-08T23:42:42.854Z,72.04
2023-02-08T23:45:12.142Z,71.36
2023-02-08T23:47:41.203Z,70.84
2023-02-08T23:50:12.219Z,70.70
2023-02-08T23:52:41.041Z,70.58
2023-02-08T23:55:12.237Z,70.65
2023-02-08T23:57:41.103Z,70.60
